Burnaby, Canada
Current Conditions -  °F | °C
As of 6:00 PM on Sunday 21 Dec 2014 (Local Time) from CYVR Reporting Station
Overcast Overcast  
Wind Chill: 44°   Ceiling: 13000
Heat Index: 46°   Visibility: 15mi
Dew Point: 45°   Wind: 6mph
Humidity: 93%   Direction: 80°E
Pressure: 29.99"   Gusts: NA
Location:  49.24°N, 122.97°W
Report Text: CYVR 220200Z 08005KT 15SM FEW040 BKN130 OVC180 08/07 A2999 RMK SC2AC3AC3 SLP156
Loading
Personal Weather Stations






























Interactive Weather Map New forecast layout! Learn more

10-Day Weather Forecast

Advertisements
Track Severe Weather on mobile